Time;durP1;ratioP1;P1;durP2;ratioP2;P2;SDS_P1;SDS_P2;PMS_P1;PMS_P2;Temp;Humidity;BMP_temperature;BMP_pressure;BME280_temperature;BME280_humidity;BME280_pressure;Samples;Min_cycle;Max_cycle;Signal;HPM_P1;HPM_P2
2022/07/07 00:00:50;;;;;;;;;;;;;;;;;;5045661;28;19936;-47
2022/07/07 00:03:16;;;;;;;;;;;;;;;;;;5047017;28;19966;-49
2022/07/07 00:05:42;;;;;;;;;;;;;;;;;;5064669;28;19978;-47
2022/07/07 00:08:08;;;;;;;;;;;;;;;;;;5065544;28;19963;-48
2022/07/07 00:10:34;;;;;;;;;;;;;;;;;;5048267;28;20023;-46
2022/07/07 00:13:00;;;;;;;;;;;;;;;;;;5066467;28;19909;-45
2022/07/07 00:15:26;;;;;;;;;;;;;;;;;;5066357;28;19908;-48
2022/07/07 00:17:53;;;;;;;;;;;;;;;;;;5066637;28;19986;-49
2022/07/07 00:20:19;;;;;;;;;;;;;;;;;;5065586;28;19913;-45
2022/07/07 00:22:45;;;;;;;;;;;;;;;;;;5066756;28;20466;-43
2022/07/07 00:25:11;;;;;;;;;;;;;;;;;;5064231;28;19912;-45
2022/07/07 00:27:37;;;;;;;;;;;;;;;;;;5052260;28;19994;-47
2022/07/07 00:30:03;;;;;;;;;;;;;;;;;;5046312;28;19959;-44
2022/07/07 00:32:29;;;;;;;;;;;;;;;;;;5046790;28;19950;-45
2022/07/07 00:34:55;;;;;;;;;;;;;;;;;;5046933;28;20012;-46
2022/07/07 00:37:20;;;;;;;;;;;;;;;;;;5046947;28;20004;-45
2022/07/07 00:39:46;;;;;;;;;;;;;;;;;;5046928;28;20398;-47
2022/07/07 00:42:12;;;;;;;;;;;;;;;;;;5047130;28;19924;-44
2022/07/07 00:44:38;;;;;;;;;;;;;;;;;;5046834;28;19974;-45
2022/07/07 00:47:05;;;;;;;;;;;;;;;;;;5046890;28;19913;-44
2022/07/07 00:49:32;;;;;;;;;;;;;;;;;;5046266;28;20450;-45
2022/07/07 00:51:58;;;;;;;;;;;;;;;;;;5046745;28;20382;-44
2022/07/07 00:54:24;;;;;;;;;;;;;;;;;;5046676;28;19909;-45
2022/07/07 00:56:50;;;;;;;;;;;;;;;;;;5047453;28;19962;-47
2022/07/07 00:59:16;;;;;;;;;;;;;;;;;;5046528;28;20391;-44
2022/07/07 01:01:42;;;;;;;;;;;;;;;;;;5047026;28;19912;-44
2022/07/07 01:04:08;;;;;;;;;;;;;;;;;;5046449;28;19916;-45
2022/07/07 01:06:34;;;;;;;;;;;;;;;;;;5046501;28;20003;-45
2022/07/07 01:09:00;;;;;;;;;;;;;;;;;;5046610;28;19909;-45
2022/07/07 01:11:26;;;;;;;;;;;;;;;;;;5046245;28;19912;-45
2022/07/07 01:13:53;;;;;;;;;;;;;;;;;;5046567;28;19913;-45
2022/07/07 01:16:19;;;;;;;;;;;;;;;;;;5046248;28;19913;-46
2022/07/07 01:18:44;;;;;;;;;;;;;;;;;;5046444;28;19915;-48
2022/07/07 01:21:10;;;;;;;;;;;;;;;;;;5046934;28;19916;-45
2022/07/07 01:23:36;;;;;;;;;;;;;;;;;;5046336;28;19912;-48
2022/07/07 01:26:02;;;;;;;;;;;;;;;;;;5046471;28;19952;-46
2022/07/07 01:28:29;;;;;;;;;;;;;;;;;;5046691;28;19917;-46
2022/07/07 01:30:58;;;;;;;;;;;;;;;;;;5046387;28;20003;-45
2022/07/07 01:33:24;;;;;;;;;;;;;;;;;;5046061;28;19913;-46
2022/07/07 01:35:49;;;;;;;;;;;;;;;;;;5046539;28;20276;-45
2022/07/07 01:38:16;;;;;;;;;;;;;;;;;;5046759;28;19915;-45
2022/07/07 01:40:42;;;;;;;;;;;;;;;;;;5046733;28;20389;-47
2022/07/07 01:43:08;;;;;;;;;;;;;;;;;;5048685;28;19924;-47
2022/07/07 01:45:34;;;;;;;;;;;;;;;;;;5049835;28;19966;-46
2022/07/07 01:48:00;;;;;;;;;;;;;;;;;;5049877;28;19908;-45
2022/07/07 01:50:26;;;;;;;;;;;;;;;;;;5049798;28;19959;-48
2022/07/07 01:52:53;;;;;;;;;;;;;;;;;;5050172;28;20302;-44
2022/07/07 01:55:19;;;;;;;;;;;;;;;;;;5049752;28;19916;-44
2022/07/07 01:57:45;;;;;;;;;;;;;;;;;;5050362;28;20004;-45
2022/07/07 02:00:12;;;;;;;;;;;;;;;;;;5050569;28;19962;-45
2022/07/07 02:02:38;;;;;;;;;;;;;;;;;;5049455;28;19921;-45
2022/07/07 02:05:04;;;;;;;;;;;;;;;;;;5049639;28;20327;-49
2022/07/07 02:07:30;;;;;;;;;;;;;;;;;;5049641;28;20050;-46
2022/07/07 02:09:55;;;;;;;;;;;;;;;;;;5049825;28;19913;-47
2022/07/07 02:12:21;;;;;;;;;;;;;;;;;;5049305;28;19916;-45
2022/07/07 02:14:47;;;;;;;;;;;;;;;;;;5049630;28;19920;-46
2022/07/07 02:17:13;;;;;;;;;;;;;;;;;;5050016;28;19951;-44
2022/07/07 02:19:39;;;;;;;;;;;;;;;;;;5049435;28;19912;-48
2022/07/07 02:22:06;;;;;;;;;;;;;;;;;;5049562;28;20051;-45
2022/07/07 02:24:33;;;;;;;;;;;;;;;;;;5049237;28;19912;-44
2022/07/07 02:26:59;;;;;;;;;;;;;;;;;;5049372;28;20332;-46
2022/07/07 02:29:24;;;;;;;;;;;;;;;;;;5049249;28;19909;-46
2022/07/07 02:31:51;;;;;;;;;;;;;;;;;;5049173;28;19924;-46
2022/07/07 02:34:20;;;;;;;;;;;;;;;;;;5048902;28;19909;-44
2022/07/07 02:36:46;;;;;;;;;;;;;;;;;;5049326;28;19999;-46
2022/07/07 02:39:12;;;;;;;;;;;;;;;;;;5049889;28;20039;-44
2022/07/07 02:41:39;;;;;;;;;;;;;;;;;;5048865;28;19921;-46
2022/07/07 02:44:04;;;;;;;;;;;;;;;;;;5049113;28;20311;-44
2022/07/07 02:46:30;;;;;;;;;;;;;;;;;;5048713;28;19909;-46
2022/07/07 02:48:56;;;;;;;;;;;;;;;;;;5048636;28;19920;-46
2022/07/07 02:51:23;;;;;;;;;;;;;;;;;;5048730;28;19916;-44
2022/07/07 02:53:49;;;;;;;;;;;;;;;;;;5048708;28;19912;-46
2022/07/07 02:56:15;;;;;;;;;;;;;;;;;;5048922;28;20460;-47
2022/07/07 02:58:42;;;;;;;;;;;;;;;;;;5048957;28;20269;-48
2022/07/07 03:01:08;;;;;;;;;;;;;;;;;;5048762;28;19940;-44
2022/07/07 03:03:34;;;;;;;;;;;;;;;;;;5048740;28;20355;-44
2022/07/07 03:06:00;;;;;;;;;;;;;;;;;;5048693;28;19913;-47
2022/07/07 03:08:26;;;;;;;;;;;;;;;;;;5048352;28;20624;-47
2022/07/07 03:10:52;;;;;;;;;;;;;;;;;;5047007;28;19978;-44
2022/07/07 03:13:19;;;;;;;;;;;;;;;;;;5047070;28;19917;-45
2022/07/07 03:15:44;;;;;;;;;;;;;;;;;;5048448;28;20320;-45
2022/07/07 03:18:10;;;;;;;;;;;;;;;;;;5048690;28;19963;-45
2022/07/07 03:20:36;;;;;;;;;;;;;;;;;;5048345;28;19912;-47
2022/07/07 03:23:04;;;;;;;;;;;;;;;;;;5048346;28;19916;-43
2022/07/07 03:25:30;;;;;;;;;;;;;;;;;;5048226;28;19913;-47
2022/07/07 03:27:56;;;;;;;;;;;;;;;;;;5048542;28;19916;-44
2022/07/07 03:30:22;;;;;;;;;;;;;;;;;;5047925;28;20384;-46
2022/07/07 03:32:48;;;;;;;;;;;;;;;;;;5048030;28;19920;-44
2022/07/07 03:35:14;;;;;;;;;;;;;;;;;;5048393;28;20307;-44
2022/07/07 03:37:40;;;;;;;;;;;;;;;;;;5048083;28;20307;-45
2022/07/07 03:40:06;;;;;;;;;;;;;;;;;;5048180;28;19940;-47
2022/07/07 03:42:32;;;;;;;;;;;;;;;;;;5047914;28;20214;-44
2022/07/07 03:44:58;;;;;;;;;;;;;;;;;;5047966;28;20126;-46
2022/07/07 03:47:25;;;;;;;;;;;;;;;;;;5047534;28;20380;-44
2022/07/07 03:49:51;;;;;;;;;;;;;;;;;;5047946;28;19924;-45
2022/07/07 03:52:18;;;;;;;;;;;;;;;;;;5047315;28;20355;-45
2022/07/07 03:54:44;;;;;;;;;;;;;;;;;;5048112;28;19919;-43
2022/07/07 03:57:10;;;;;;;;;;;;;;;;;;5047855;28;19913;-45
2022/07/07 03:59:36;;;;;;;;;;;;;;;;;;5047602;28;19915;-47
2022/07/07 04:02:02;;;;;;;;;;;;;;;;;;5047542;28;19916;-45
2022/07/07 04:04:29;;;;;;;;;;;;;;;;;;5047352;28;20384;-48
2022/07/07 04:06:55;;;;;;;;;;;;;;;;;;5047376;28;20007;-48
2022/07/07 04:09:21;;;;;;;;;;;;;;;;;;5047545;28;20000;-46
2022/07/07 04:11:48;;;;;;;;;;;;;;;;;;5047635;28;19913;-48
2022/07/07 04:14:14;;;;;;;;;;;;;;;;;;5047565;28;19920;-45
2022/07/07 04:16:40;;;;;;;;;;;;;;;;;;5047221;28;19952;-45
2022/07/07 04:19:07;;;;;;;;;;;;;;;;;;5047454;28;20299;-45
2022/07/07 04:21:33;;;;;;;;;;;;;;;;;;5047197;28;19920;-45
2022/07/07 04:24:00;;;;;;;;;;;;;;;;;;5047447;28;19916;-46
2022/07/07 04:26:26;;;;;;;;;;;;;;;;;;5046711;28;19931;-46
2022/07/07 04:28:52;;;;;;;;;;;;;;;;;;5047339;28;20445;-44
2022/07/07 04:31:17;;;;;;;;;;;;;;;;;;5046870;28;19913;-46
2022/07/07 04:33:43;;;;;;;;;;;;;;;;;;5047543;28;20292;-44
2022/07/07 04:36:11;;;;;;;;;;;;;;;;;;5047073;28;19962;-45
2022/07/07 04:38:37;;;;;;;;;;;;;;;;;;5046896;28;19913;-44
2022/07/07 04:41:02;;;;;;;;;;;;;;;;;;5047051;28;20286;-48
2022/07/07 04:43:28;;;;;;;;;;;;;;;;;;5046702;28;19940;-46
2022/07/07 04:45:54;;;;;;;;;;;;;;;;;;5047019;28;19912;-44
2022/07/07 04:48:20;;;;;;;;;;;;;;;;;;5046351;28;20376;-45
2022/07/07 04:50:46;;;;;;;;;;;;;;;;;;5046919;28;19912;-47
2022/07/07 04:53:12;;;;;;;;;;;;;;;;;;5047160;28;20366;-44
2022/07/07 04:55:39;;;;;;;;;;;;;;;;;;5046814;28;19915;-47
2022/07/07 04:58:05;;;;;;;;;;;;;;;;;;5046882;28;19917;-44
2022/07/07 05:00:30;;;;;;;;;;;;;;;;;;5046492;28;19905;-44
2022/07/07 05:02:57;;;;;;;;;;;;;;;;;;5046511;28;20308;-45
2022/07/07 05:05:24;;;;;;;;;;;;;;;;;;5046532;28;19913;-45
2022/07/07 05:07:50;;;;;;;;;;;;;;;;;;5046869;28;20295;-44
2022/07/07 05:10:16;;;;;;;;;;;;;;;;;;5046331;28;19912;-45
2022/07/07 05:12:43;;;;;;;;;;;;;;;;;;5046905;28;19919;-47
2022/07/07 05:15:10;;;;;;;;;;;;;;;;;;5046899;28;19962;-49
2022/07/07 05:17:36;;;;;;;;;;;;;;;;;;5047700;28;19909;-45
2022/07/07 05:20:03;;;;;;;;;;;;;;;;;;5050966;28;19909;-44
2022/07/07 05:22:29;;;;;;;;;;;;;;;;;;5050538;28;19952;-44
2022/07/07 05:24:54;;;;;;;;;;;;;;;;;;5050565;28;19940;-45
2022/07/07 05:27:21;;;;;;;;;;;;;;;;;;5050179;28;19913;-48
2022/07/07 05:29:46;;;;;;;;;;;;;;;;;;5050502;28;20387;-45
2022/07/07 05:32:12;;;;;;;;;;;;;;;;;;5050445;28;19909;-45
2022/07/07 05:34:39;;;;;;;;;;;;;;;;;;5050229;28;20404;-46
2022/07/07 05:37:05;;;;;;;;;;;;;;;;;;5050382;28;19923;-44
2022/07/07 05:39:32;;;;;;;;;;;;;;;;;;5050057;28;19999;-46
2022/07/07 05:41:58;;;;;;;;;;;;;;;;;;5063653;28;19974;-46
2022/07/07 05:44:24;;;;;;;;;;;;;;;;;;5069874;28;19971;-46
2022/07/07 05:46:50;;;;;;;;;;;;;;;;;;5070969;28;20391;-43
2022/07/07 05:49:16;;;;;;;;;;;;;;;;;;5075276;28;19923;-43
2022/07/07 05:51:42;;;;;;;;;;;;;;;;;;5092006;28;19920;-43
2022/07/07 05:54:08;;;;;;;;;;;;;;;;;;5091587;28;20414;-46
2022/07/07 05:56:34;;;;;;;;;;;;;;;;;;5091459;28;19986;-44
2022/07/07 05:59:00;;;;;;;;;;;;;;;;;;5091750;28;19916;-44
2022/07/07 06:01:26;;;;;;;;;;;;;;;;;;5082993;28;19913;-43
2022/07/07 06:03:52;;;;;;;;;;;;;;;;;;5071077;28;20007;-45
2022/07/07 06:06:18;;;;;;;;;;;;;;;;;;5071321;28;19908;-45
2022/07/07 06:08:44;;;;;;;;;;;;;;;;;;5071025;28;19974;-46
2022/07/07 06:11:10;;;;;;;;;;;;;;;;;;5071216;28;19920;-47
2022/07/07 06:13:36;;;;;;;;;;;;;;;;;;5070912;28;20002;-44
2022/07/07 06:16:01;;;;;;;;;;;;;;;;;;5070841;28;19909;-43
2022/07/07 06:18:27;;;;;;;;;;;;;;;;;;5070434;28;19912;-44
2022/07/07 06:20:54;;;;;;;;;;;;;;;;;;5070905;28;19917;-47
2022/07/07 06:23:20;;;;;;;;;;;;;;;;;;5070371;28;19923;-45
2022/07/07 06:25:46;;;;;;;;;;;;;;;;;;5067762;28;19916;-45
2022/07/07 06:28:11;;;;;;;;;;;;;;;;;;5071382;28;19981;-45
2022/07/07 06:30:38;;;;;;;;;;;;;;;;;;5051184;28;19924;-45
2022/07/07 06:33:05;;;;;;;;;;;;;;;;;;5052578;28;19912;-47
2022/07/07 06:35:31;;;;;;;;;;;;;;;;;;5069914;28;19913;-46
2022/07/07 06:37:57;;;;;;;;;;;;;;;;;;5068539;28;19919;-46
2022/07/07 06:40:23;;;;;;;;;;;;;;;;;;5070078;28;20451;-45
2022/07/07 06:42:49;;;;;;;;;;;;;;;;;;5070281;28;19956;-45
2022/07/07 06:45:15;;;;;;;;;;;;;;;;;;5051510;28;19916;-47
2022/07/07 06:47:41;;;;;;;;;;;;;;;;;;5069904;28;19919;-45
2022/07/07 06:50:07;;;;;;;;;;;;;;;;;;5069950;28;19913;-46
2022/07/07 06:52:33;;;;;;;;;;;;;;;;;;5069941;28;19916;-44
2022/07/07 06:54:59;;;;;;;;;;;;;;;;;;5069920;28;19920;-46
2022/07/07 06:57:24;;;;;;;;;;;;;;;;;;5069713;28;19909;-46
2022/07/07 06:59:51;;;;;;;;;;;;;;;;;;5069747;28;19913;-49
2022/07/07 07:02:19;;;;;;;;;;;;;;;;;;5070201;28;19962;-44
2022/07/07 07:04:47;;;;;;;;;;;;;;;;;;5070217;28;20380;-44
2022/07/07 07:07:13;;;;;;;;;;;;;;;;;;5069652;28;19916;-44
2022/07/07 07:09:38;;;;;;;;;;;;;;;;;;5069676;28;19909;-47
2022/07/07 07:12:04;;;;;;;;;;;;;;;;;;5069687;28;19919;-44
2022/07/07 07:14:30;;;;;;;;;;;;;;;;;;5069394;28;19913;-44
2022/07/07 07:16:57;;;;;;;;;;;;;;;;;;5069803;28;19912;-45
2022/07/07 07:19:23;;;;;;;;;;;;;;;;;;5069695;28;20313;-45
2022/07/07 07:21:49;;;;;;;;;;;;;;;;;;5069810;28;20012;-45
2022/07/07 07:24:15;;;;;;;;;;;;;;;;;;5069942;28;19995;-44
2022/07/07 07:26:41;;;;;;;;;;;;;;;;;;5069161;28;20011;-44
2022/07/07 07:29:07;;;;;;;;;;;;;;;;;;5069535;28;19913;-45
2022/07/07 07:31:33;;;;;;;;;;;;;;;;;;5069159;28;19913;-44
2022/07/07 07:33:59;;;;;;;;;;;;;;;;;;5069168;28;19909;-45
2022/07/07 07:36:25;;;;;;;;;;;;;;;;;;5069030;28;19908;-45
2022/07/07 07:38:51;;;;;;;;;;;;;;;;;;5065054;28;20406;-46
2022/07/07 07:41:18;;;;;;;;;;;;;;;;;;5068285;28;19920;-47
2022/07/07 07:43:44;;;;;;;;;;;;;;;;;;5069492;28;19912;-44
2022/07/07 07:46:11;;;;;;;;;;;;;;;;;;5069127;28;20402;-46
2022/07/07 07:48:37;;;;;;;;;;;;;;;;;;5068651;28;20074;-47
2022/07/07 07:51:03;;;;;;;;;;;;;;;;;;5068947;28;19954;-45
2022/07/07 07:53:29;;;;;;;;;;;;;;;;;;5068900;28;20005;-45
2022/07/07 07:55:56;;;;;;;;;;;;;;;;;;5068738;28;20297;-45
2022/07/07 07:58:23;;;;;;;;;;;;;;;;;;5068655;28;19913;-45
2022/07/07 08:00:50;;;;;;;;;;;;;;;;;;5068566;28;19999;-45
2022/07/07 08:03:16;;;;;;;;;;;;;;;;;;5068807;28;19919;-44
2022/07/07 08:05:42;;;;;;;;;;;;;;;;;;5068456;28;19912;-45
2022/07/07 08:08:08;;;;;;;;;;;;;;;;;;5068814;28;19916;-45
2022/07/07 08:10:34;;;;;;;;;;;;;;;;;;5068191;28;19924;-44
2022/07/07 08:12:59;;;;;;;;;;;;;;;;;;5068912;28;19908;-46
2022/07/07 08:15:25;;;;;;;;;;;;;;;;;;5067963;28;20380;-45
2022/07/07 08:17:52;;;;;;;;;;;;;;;;;;5068878;28;19974;-46
2022/07/07 08:20:17;;;;;;;;;;;;;;;;;;5068284;28;19911;-45
2022/07/07 08:22:43;;;;;;;;;;;;;;;;;;5068612;28;19908;-45
2022/07/07 08:25:09;;;;;;;;;;;;;;;;;;5068424;28;19963;-44
2022/07/07 08:27:37;;;;;;;;;;;;;;;;;;5068450;28;19920;-44
2022/07/07 08:30:04;;;;;;;;;;;;;;;;;;5068203;28;19912;-44
2022/07/07 08:32:30;;;;;;;;;;;;;;;;;;5068490;28;19994;-45
2022/07/07 08:34:56;;;;;;;;;;;;;;;;;;5068628;28;20008;-45
2022/07/07 08:37:22;;;;;;;;;;;;;;;;;;5066506;28;20405;-47
2022/07/07 08:39:47;;;;;;;;;;;;;;;;;;5066724;28;20387;-47
2022/07/07 08:42:13;;;;;;;;;;;;;;;;;;5066756;28;19946;-45
2022/07/07 08:44:40;;;;;;;;;;;;;;;;;;5066431;28;19962;-45
2022/07/07 08:47:06;;;;;;;;;;;;;;;;;;5075298;28;20352;-46
2022/07/07 08:49:33;;;;;;;;;;;;;;;;;;5066427;28;19966;-46
2022/07/07 08:51:59;;;;;;;;;;;;;;;;;;5066983;28;19921;-46
2022/07/07 08:54:25;;;;;;;;;;;;;;;;;;5067274;28;19917;-46
2022/07/07 08:56:51;;;;;;;;;;;;;;;;;;5067557;28;19966;-44
2022/07/07 08:59:18;;;;;;;;;;;;;;;;;;5066331;28;19917;-46
2022/07/07 09:01:44;;;;;;;;;;;;;;;;;;5068189;28;19908;-45
2022/07/07 09:04:09;;;;;;;;;;;;;;;;;;5068437;28;19954;-45
2022/07/07 09:06:35;;;;;;;;;;;;;;;;;;5066870;28;19912;-45
2022/07/07 09:09:03;;;;;;;;;;;;;;;;;;5066984;28;19922;-46
2022/07/07 09:11:29;;;;;;;;;;;;;;;;;;5068416;28;19920;-48
2022/07/07 09:13:56;;;;;;;;;;;;;;;;;;5068172;28;19909;-47
2022/07/07 09:16:23;;;;;;;;;;;;;;;;;;5067068;28;19916;-44
2022/07/07 09:18:49;;;;;;;;;;;;;;;;;;5068292;28;19962;-47
2022/07/07 09:21:15;;;;;;;;;;;;;;;;;;5067283;28;19921;-48
2022/07/07 09:23:41;;;;;;;;;;;;;;;;;;5068130;28;19965;-46
2022/07/07 09:26:07;;;;;;;;;;;;;;;;;;5067180;28;19924;-49
2022/07/07 09:28:33;;;;;;;;;;;;;;;;;;5067811;28;19916;-46
2022/07/07 09:31:00;;;;;;;;;;;;;;;;;;5067245;28;19916;-47
2022/07/07 09:33:26;;;;;;;;;;;;;;;;;;5067794;28;19956;-46
2022/07/07 09:38:36;;;;;;;;;;;;;;;;;;5054517;28;19951;-46
2022/07/07 09:41:03;;;;;;;;;;;;;;;;;;5067129;28;19979;-45
2022/07/07 09:43:29;;;;;;;;;;;;;;;;;;5066349;28;20379;-46
2022/07/07 09:45:55;;;;;;;;;;;;;;;;;;5065449;28;20011;-46
2022/07/07 09:48:21;;;;;;;;;;;;;;;;;;5065307;28;20420;-47
2022/07/07 09:50:47;;;;;;;;;;;;;;;;;;5067837;28;19917;-45
2022/07/07 09:53:13;;;;;;;;;;;;;;;;;;5067898;28;19908;-48
2022/07/07 09:55:39;;;;;;;;;;;;;;;;;;5067473;28;19968;-46
2022/07/07 09:58:06;;;;;;;;;;;;;;;;;;5065822;28;19967;-47
2022/07/07 10:00:32;;;;;;;;;;;;;;;;;;5067274;28;19916;-45
2022/07/07 10:02:58;;;;;;;;;;;;;;;;;;5067195;28;20410;-46
2022/07/07 10:05:24;;;;;;;;;;;;;;;;;;5063119;28;19939;-48
2022/07/07 10:07:49;;;;;;;;;;;;;;;;;;5068537;28;19913;-45
2022/07/07 10:10:15;;;;;;;;;;;;;;;;;;5067104;28;19916;-49
2022/07/07 10:12:41;;;;;;;;;;;;;;;;;;5067182;28;19966;-49
2022/07/07 10:15:11;;;;;;;;;;;;;;;;;;5069711;28;19916;-46
2022/07/07 10:17:38;;;;;;;;;;;;;;;;;;5069138;28;19973;-44
2022/07/07 10:20:04;;;;;;;;;;;;;;;;;;5070007;28;19908;-48
2022/07/07 10:22:30;;;;;;;;;;;;;;;;;;5069749;28;19908;-47
2022/07/07 10:24:56;;;;;;;;;;;;;;;;;;5069469;28;20041;-48
2022/07/07 10:27:22;;;;;;;;;;;;;;;;;;5069072;28;20269;-44
2022/07/07 10:29:49;;;;;;;;;;;;;;;;;;5068783;28;19935;-47
2022/07/07 10:32:15;;;;;;;;;;;;;;;;;;5069389;28;20371;-46
2022/07/07 10:34:41;;;;;;;;;;;;;;;;;;5068888;28;19908;-46
2022/07/07 10:37:07;;;;;;;;;;;;;;;;;;5069271;28;19917;-46
2022/07/07 10:39:33;;;;;;;;;;;;;;;;;;5069437;28;19912;-48
2022/07/07 10:41:59;;;;;;;;;;;;;;;;;;5070519;28;19920;-48
2022/07/07 10:44:25;;;;;;;;;;;;;;;;;;5071346;28;19916;-46
2022/07/07 10:46:51;;;;;;;;;;;;;;;;;;5067104;28;19978;-47
2022/07/07 10:49:17;;;;;;;;;;;;;;;;;;5067796;28;20268;-48
2022/07/07 10:51:43;;;;;;;;;;;;;;;;;;5068147;28;19927;-47
2022/07/07 10:54:10;;;;;;;;;;;;;;;;;;5049959;28;19908;-45
2022/07/07 10:56:36;;;;;;;;;;;;;;;;;;5067905;28;19913;-45
2022/07/07 10:59:02;;;;;;;;;;;;;;;;;;5068125;28;19912;-45
2022/07/07 11:01:29;;;;;;;;;;;;;;;;;;5067528;28;19916;-48
2022/07/07 11:03:55;;;;;;;;;;;;;;;;;;5067301;28;19922;-46
2022/07/07 11:06:20;;;;;;;;;;;;;;;;;;5066879;28;20302;-45
2022/07/07 11:08:47;;;;;;;;;;;;;;;;;;5068019;28;19909;-45
2022/07/07 11:11:13;;;;;;;;;;;;;;;;;;5065947;28;19965;-48
2022/07/07 11:13:39;;;;;;;;;;;;;;;;;;5065652;28;19916;-48
2022/07/07 11:16:05;;;;;;;;;;;;;;;;;;5067414;28;20360;-49
2022/07/07 11:18:31;;;;;;;;;;;;;;;;;;5067839;28;20276;-45
2022/07/07 11:20:57;;;;;;;;;;;;;;;;;;5063934;28;21110;-45
2022/07/07 11:23:23;;;;;;;;;;;;;;;;;;5065331;28;19916;-44
2022/07/07 11:25:51;;;;;;;;;;;;;;;;;;5068817;28;20072;-46
2022/07/07 11:28:17;;;;;;;;;;;;;;;;;;5051741;28;19912;-45
2022/07/07 11:30:44;;;;;;;;;;;;;;;;;;5070593;28;20102;-45
2022/07/07 11:33:10;;;;;;;;;;;;;;;;;;5067252;28;19916;-48
2022/07/07 11:35:37;;;;;;;;;;;;;;;;;;5067054;28;19943;-47
2022/07/07 11:38:03;;;;;;;;;;;;;;;;;;5068951;28;20785;-45
2022/07/07 11:40:30;;;;;;;;;;;;;;;;;;5067368;28;20058;-45
2022/07/07 11:43:00;;;;;;;;;;;;;;;;;;5064912;28;20069;-45
2022/07/07 11:45:26;;;;;;;;;;;;;;;;;;5066606;28;19913;-46
2022/07/07 11:47:52;;;;;;;;;;;;;;;;;;5066835;28;19919;-45
2022/07/07 11:50:19;;;;;;;;;;;;;;;;;;5066209;28;20486;-43
2022/07/07 11:52:44;;;;;;;;;;;;;;;;;;5067088;28;19985;-44
2022/07/07 11:55:12;;;;;;;;;;;;;;;;;;5065797;28;20395;-43
2022/07/07 11:57:38;;;;;;;;;;;;;;;;;;5066065;28;19974;-44
2022/07/07 12:00:04;;;;;;;;;;;;;;;;;;5067634;28;20413;-44
2022/07/07 12:02:29;;;;;;;;;;;;;;;;;;5067625;28;19913;-43
2022/07/07 12:04:55;;;;;;;;;;;;;;;;;;5067038;28;19917;-43
2022/07/07 12:07:21;;;;;;;;;;;;;;;;;;5064185;28;20020;-42
2022/07/07 12:09:47;;;;;;;;;;;;;;;;;;5068447;28;20599;-44
2022/07/07 12:12:15;;;;;;;;;;;;;;;;;;5067236;28;20308;-42
2022/07/07 12:14:42;;;;;;;;;;;;;;;;;;5067186;28;20391;-42
2022/07/07 12:17:08;;;;;;;;;;;;;;;;;;5048408;28;19916;-41
2022/07/07 12:19:34;;;;;;;;;;;;;;;;;;5054667;28;19935;-42
2022/07/07 12:22:00;;;;;;;;;;;;;;;;;;5068269;28;19908;-43
2022/07/07 12:24:26;;;;;;;;;;;;;;;;;;5070377;28;19923;-43
2022/07/07 12:26:52;;;;;;;;;;;;;;;;;;5065849;28;20299;-43
2022/07/07 12:29:18;;;;;;;;;;;;;;;;;;5065561;28;20553;-42
2022/07/07 12:31:44;;;;;;;;;;;;;;;;;;5067546;28;20394;-42
2022/07/07 12:34:10;;;;;;;;;;;;;;;;;;5066979;28;19913;-42
2022/07/07 12:36:36;;;;;;;;;;;;;;;;;;5066323;28;19923;-44
2022/07/07 12:39:03;;;;;;;;;;;;;;;;;;5066585;28;20007;-42
2022/07/07 12:41:29;;;;;;;;;;;;;;;;;;5067496;28;19917;-42
2022/07/07 12:43:55;;;;;;;;;;;;;;;;;;5067358;28;20283;-42
2022/07/07 12:46:21;;;;;;;;;;;;;;;;;;5065893;28;19951;-43
2022/07/07 12:48:47;;;;;;;;;;;;;;;;;;5065907;28;19912;-43
2022/07/07 12:51:13;;;;;;;;;;;;;;;;;;5067645;28;19927;-46
2022/07/07 12:53:39;;;;;;;;;;;;;;;;;;5067302;28;19948;-43
2022/07/07 12:56:05;;;;;;;;;;;;;;;;;;5066972;28;19928;-43
2022/07/07 12:58:31;;;;;;;;;;;;;;;;;;5049048;28;19912;-43
2022/07/07 13:00:58;;;;;;;;;;;;;;;;;;5067142;28;19912;-43
2022/07/07 13:03:24;;;;;;;;;;;;;;;;;;5066474;28;20058;-43
2022/07/07 13:05:49;;;;;;;;;;;;;;;;;;5064504;28;19999;-43
2022/07/07 13:08:15;;;;;;;;;;;;;;;;;;5066984;28;19920;-43
2022/07/07 13:10:41;;;;;;;;;;;;;;;;;;5066324;28;19912;-43
2022/07/07 13:13:07;;;;;;;;;;;;;;;;;;5064335;28;19920;-45
2022/07/07 13:15:33;;;;;;;;;;;;;;;;;;5067476;28;19955;-42
2022/07/07 13:17:59;;;;;;;;;;;;;;;;;;5065402;28;19916;-43
2022/07/07 13:20:25;;;;;;;;;;;;;;;;;;5065473;28;19912;-43
2022/07/07 13:22:52;;;;;;;;;;;;;;;;;;5065886;28;19908;-43
2022/07/07 13:25:18;;;;;;;;;;;;;;;;;;5065972;28;20419;-43
2022/07/07 13:27:44;;;;;;;;;;;;;;;;;;5065140;28;19990;-43
2022/07/07 13:30:11;;;;;;;;;;;;;;;;;;5064921;28;19920;-42
2022/07/07 13:32:36;;;;;;;;;;;;;;;;;;5064867;28;19923;-42
2022/07/07 13:35:03;;;;;;;;;;;;;;;;;;5066173;28;20003;-43
2022/07/07 13:37:29;;;;;;;;;;;;;;;;;;5065782;28;19917;-45
2022/07/07 13:39:55;;;;;;;;;;;;;;;;;;5067538;28;19995;-44
2022/07/07 13:42:21;;;;;;;;;;;;;;;;;;5070767;28;19954;-43
2022/07/07 13:44:47;;;;;;;;;;;;;;;;;;5071248;28;19916;-42
2022/07/07 13:47:15;;;;;;;;;;;;;;;;;;5071207;28;19908;-43
2022/07/07 13:49:41;;;;;;;;;;;;;;;;;;5070759;28;19932;-44
2022/07/07 13:52:07;;;;;;;;;;;;;;;;;;5070980;28;19909;-43
2022/07/07 13:54:33;;;;;;;;;;;;;;;;;;5071277;28;19958;-42
2022/07/07 13:56:59;;;;;;;;;;;;;;;;;;5070547;28;19912;-45
2022/07/07 13:59:25;;;;;;;;;;;;;;;;;;5070399;28;19958;-44
2022/07/07 14:01:51;;;;;;;;;;;;;;;;;;5071262;28;19909;-45
2022/07/07 14:04:17;;;;;;;;;;;;;;;;;;5070566;28;19943;-41
2022/07/07 14:06:43;;;;;;;;;;;;;;;;;;5070771;28;19934;-43
2022/07/07 14:09:09;;;;;;;;;;;;;;;;;;5070763;28;19951;-43
2022/07/07 14:11:35;;;;;;;;;;;;;;;;;;5070513;28;19940;-43
2022/07/07 14:14:01;;;;;;;;;;;;;;;;;;5070045;28;20379;-42
2022/07/07 14:16:27;;;;;;;;;;;;;;;;;;5070442;28;19916;-45
2022/07/07 14:18:52;;;;;;;;;;;;;;;;;;5070755;28;19931;-42
2022/07/07 14:21:18;;;;;;;;;;;;;;;;;;5070007;28;19912;-45
2022/07/07 14:23:44;;;;;;;;;;;;;;;;;;5070381;28;20000;-42
2022/07/07 14:26:10;;;;;;;;;;;;;;;;;;5070118;28;19912;-42
2022/07/07 14:28:38;;;;;;;;;;;;;;;;;;5069825;28;19912;-44
2022/07/07 14:31:03;;;;;;;;;;;;;;;;;;5070553;28;20410;-45
2022/07/07 14:33:29;;;;;;;;;;;;;;;;;;5070033;28;19912;-44
2022/07/07 14:35:55;;;;;;;;;;;;;;;;;;5073365;28;19916;-42
2022/07/07 14:38:21;;;;;;;;;;;;;;;;;;5069996;28;19913;-42
2022/07/07 14:40:47;;;;;;;;;;;;;;;;;;5067337;28;19908;-45
2022/07/07 14:43:13;;;;;;;;;;;;;;;;;;5065265;28;20015;-42
2022/07/07 14:45:39;;;;;;;;;;;;;;;;;;5068352;28;19966;-42
2022/07/07 14:48:05;;;;;;;;;;;;;;;;;;5069857;28;19917;-42
2022/07/07 14:50:31;;;;;;;;;;;;;;;;;;5069204;28;19919;-46
2022/07/07 14:52:57;;;;;;;;;;;;;;;;;;5069923;28;20000;-43
2022/07/07 14:55:26;;;;;;;;;;;;;;;;;;5069359;28;19913;-43
2022/07/07 14:57:52;;;;;;;;;;;;;;;;;;5070247;28;20330;-43
2022/07/07 15:00:18;;;;;;;;;;;;;;;;;;5069922;28;19959;-42
2022/07/07 15:02:44;;;;;;;;;;;;;;;;;;5069659;28;19944;-43
2022/07/07 15:05:10;;;;;;;;;;;;;;;;;;5069615;28;19938;-45
2022/07/07 15:07:42;;;;;;;;;;;;;;;;;;5069430;28;19912;-44
2022/07/07 15:10:08;;;;;;;;;;;;;;;;;;5069114;28;20011;-43
2022/07/07 15:12:34;;;;;;;;;;;;;;;;;;5069613;28;19950;-45
2022/07/07 15:15:00;;;;;;;;;;;;;;;;;;5069602;28;20552;-42
2022/07/07 15:17:26;;;;;;;;;;;;;;;;;;5069191;28;19912;-43
2022/07/07 15:19:52;;;;;;;;;;;;;;;;;;5069720;28;19909;-43
2022/07/07 15:22:18;;;;;;;;;;;;;;;;;;5067862;28;19920;-41
2022/07/07 15:24:44;;;;;;;;;;;;;;;;;;5069165;28;19913;-43
2022/07/07 15:27:10;;;;;;;;;;;;;;;;;;5069275;28;19947;-42
2022/07/07 15:29:36;;;;;;;;;;;;;;;;;;5069090;28;19920;-42
2022/07/07 15:32:01;;;;;;;;;;;;;;;;;;5067649;28;19916;-42
2022/07/07 15:34:27;;;;;;;;;;;;;;;;;;5068400;28;19924;-43
2022/07/07 15:36:53;;;;;;;;;;;;;;;;;;5068831;28;19912;-44
2022/07/07 15:39:19;;;;;;;;;;;;;;;;;;5069864;28;20109;-45
2022/07/07 15:41:45;;;;;;;;;;;;;;;;;;5069337;28;19928;-46
2022/07/07 15:44:11;;;;;;;;;;;;;;;;;;5067668;28;19912;-45
2022/07/07 15:46:37;;;;;;;;;;;;;;;;;;5069477;28;20422;-46
2022/07/07 15:49:05;;;;;;;;;;;;;;;;;;5069587;28;19909;-46
2022/07/07 15:51:31;;;;;;;;;;;;;;;;;;5068662;28;20528;-46
2022/07/07 15:53:57;;;;;;;;;;;;;;;;;;5051090;28;19913;-49
2022/07/07 15:56:23;;;;;;;;;;;;;;;;;;5068748;28;19912;-45
2022/07/07 15:58:49;;;;;;;;;;;;;;;;;;5069488;28;19908;-48
2022/07/07 16:01:15;;;;;;;;;;;;;;;;;;5068654;28;19918;-46
2022/07/07 16:06:26;;;;;;;;;;;;;;;;;;5069122;28;19920;-44
2022/07/07 16:08:52;;;;;;;;;;;;;;;;;;5068182;28;19913;-46
2022/07/07 16:11:18;;;;;;;;;;;;;;;;;;5066821;28;20001;-44
2022/07/07 16:13:44;;;;;;;;;;;;;;;;;;5050373;28;19920;-43
2022/07/07 16:16:10;;;;;;;;;;;;;;;;;;5068067;28;19917;-47
2022/07/07 16:18:35;;;;;;;;;;;;;;;;;;5058227;28;20078;-45
2022/07/07 16:21:01;;;;;;;;;;;;;;;;;;5060889;28;19912;-45
2022/07/07 16:23:27;;;;;;;;;;;;;;;;;;5049872;28;19919;-45
2022/07/07 16:25:53;;;;;;;;;;;;;;;;;;5069322;28;19931;-45
2022/07/07 16:28:19;;;;;;;;;;;;;;;;;;5048514;28;19943;-44
2022/07/07 16:30:45;;;;;;;;;;;;;;;;;;5068764;28;19923;-43
2022/07/07 16:33:11;;;;;;;;;;;;;;;;;;5067009;28;19924;-42
2022/07/07 16:35:37;;;;;;;;;;;;;;;;;;5068240;28;19923;-44
2022/07/07 16:38:03;;;;;;;;;;;;;;;;;;5069052;28;19909;-45
2022/07/07 16:40:29;;;;;;;;;;;;;;;;;;5068030;28;19916;-43
2022/07/07 16:42:55;;;;;;;;;;;;;;;;;;5068263;28;19963;-44